sensor_id;sensor_type;location;lat;lon;timestamp;pressure;altitude;pressure_sealevel;temperature;humidity
80397;BME280;69721;55.894;-3.052;2023-05-17T00:01:16;102192.59;;;13.40;43.42
80397;BME280;69721;55.894;-3.052;2023-05-17T00:03:41;102191.18;;;13.25;43.95
80397;BME280;69721;55.894;-3.052;2023-05-17T00:06:07;102188.18;;;13.52;42.98
80397;BME280;69721;55.894;-3.052;2023-05-17T00:08:32;102186.75;;;13.38;43.31
80397;BME280;69721;55.894;-3.052;2023-05-17T00:10:57;102190.92;;;13.68;42.63
80397;BME280;69721;55.894;-3.052;2023-05-17T00:13:23;102197.99;;;13.70;42.57
80397;BME280;69721;55.894;-3.052;2023-05-17T00:15:49;102200.47;;;13.71;42.60
80397;BME280;69721;55.894;-3.052;2023-05-17T00:18:14;102204.28;;;14.14;42.31
80397;BME280;69721;55.894;-3.052;2023-05-17T00:20:40;102203.02;;;13.48;42.60
80397;BME280;69721;55.894;-3.052;2023-05-17T00:23:05;102206.84;;;13.36;43.07
80397;BME280;69721;55.894;-3.052;2023-05-17T00:25:31;102208.22;;;13.50;42.94
80397;BME280;69721;55.894;-3.052;2023-05-17T00:27:56;102207.72;;;13.93;42.14
80397;BME280;69721;55.894;-3.052;2023-05-17T00:30:22;102205.37;;;14.04;41.96
80397;BME280;69721;55.894;-3.052;2023-05-17T00:32:48;102202.98;;;14.28;41.98
80397;BME280;69721;55.894;-3.052;2023-05-17T00:35:13;102206.21;;;13.95;42.06
80397;BME280;69721;55.894;-3.052;2023-05-17T00:37:39;102207.10;;;13.86;42.09
80397;BME280;69721;55.894;-3.052;2023-05-17T00:40:05;102203.74;;;13.86;42.33
80397;BME280;69721;55.894;-3.052;2023-05-17T00:42:30;102202.86;;;13.71;42.30
80397;BME280;69721;55.894;-3.052;2023-05-17T00:44:55;102201.64;;;13.88;42.02
80397;BME280;69721;55.894;-3.052;2023-05-17T00:47:21;102198.31;;;13.97;41.89
80397;BME280;69721;55.894;-3.052;2023-05-17T00:49:46;102202.58;;;13.93;41.77
80397;BME280;69721;55.894;-3.052;2023-05-17T00:52:12;102197.83;;;14.24;41.24
80397;BME280;69721;55.894;-3.052;2023-05-17T00:54:37;102191.44;;;13.71;42.30
80397;BME280;69721;55.894;-3.052;2023-05-17T00:57:03;102183.63;;;13.72;41.93
80397;BME280;69721;55.894;-3.052;2023-05-17T00:59:28;102187.64;;;13.60;42.58
80397;BME280;69721;55.894;-3.052;2023-05-17T01:01:53;102188.94;;;13.41;43.23
80397;BME280;69721;55.894;-3.052;2023-05-17T01:04:19;102187.56;;;13.12;43.33
80397;BME280;69721;55.894;-3.052;2023-05-17T01:06:44;102192.25;;;13.13;43.74
80397;BME280;69721;55.894;-3.052;2023-05-17T01:09:10;102187.91;;;13.38;42.97
80397;BME280;69721;55.894;-3.052;2023-05-17T01:11:43;102189.55;;;13.45;42.99
80397;BME280;69721;55.894;-3.052;2023-05-17T01:14:08;102192.62;;;13.53;42.95
80397;BME280;69721;55.894;-3.052;2023-05-17T01:16:30;102196.17;;;12.60;44.09
80397;BME280;69721;55.894;-3.052;2023-05-17T01:18:57;102207.86;;;12.79;44.54
80397;BME280;69721;55.894;-3.052;2023-05-17T01:21:27;102213.59;;;13.09;44.09
80397;BME280;69721;55.894;-3.052;2023-05-17T01:23:49;102211.66;;;12.90;44.16
80397;BME280;69721;55.894;-3.052;2023-05-17T01:26:13;102209.96;;;13.29;43.50
80397;BME280;69721;55.894;-3.052;2023-05-17T01:28:34;102213.13;;;13.36;43.59
80397;BME280;69721;55.894;-3.052;2023-05-17T01:31:03;102215.63;;;13.07;43.45
80397;BME280;69721;55.894;-3.052;2023-05-17T01:33:24;102220.19;;;12.57;44.06
80397;BME280;69721;55.894;-3.052;2023-05-17T01:35:49;102222.44;;;12.52;43.85
80397;BME280;69721;55.894;-3.052;2023-05-17T01:38:14;102225.71;;;12.81;43.75
80397;BME280;69721;55.894;-3.052;2023-05-17T01:40:46;102225.75;;;12.28;44.41
80397;BME280;69721;55.894;-3.052;2023-05-17T01:43:13;102227.19;;;12.60;44.00
80397;BME280;69721;55.894;-3.052;2023-05-17T01:45:35;102228.23;;;12.78;43.50
80397;BME280;69721;55.894;-3.052;2023-05-17T01:48:03;102223.81;;;13.12;43.07
80397;BME280;69721;55.894;-3.052;2023-05-17T01:50:23;102224.27;;;12.91;42.92
80397;BME280;69721;55.894;-3.052;2023-05-17T01:52:51;102214.16;;;13.10;42.59
80397;BME280;69721;55.894;-3.052;2023-05-17T01:55:19;102215.53;;;12.95;43.10
80397;BME280;69721;55.894;-3.052;2023-05-17T01:57:39;102217.54;;;12.86;43.68
80397;BME280;69721;55.894;-3.052;2023-05-17T02:00:06;102217.34;;;12.65;43.66
80397;BME280;69721;55.894;-3.052;2023-05-17T02:02:29;102217.62;;;13.00;43.44
80397;BME280;69721;55.894;-3.052;2023-05-17T02:04:54;102220.04;;;12.72;43.15
80397;BME280;69721;55.894;-3.052;2023-05-17T02:07:20;102222.88;;;12.70;43.41
80397;BME280;69721;55.894;-3.052;2023-05-17T02:09:45;102219.00;;;13.13;42.74
80397;BME280;69721;55.894;-3.052;2023-05-17T02:12:10;102212.01;;;13.29;42.37
80397;BME280;69721;55.894;-3.052;2023-05-17T02:14:36;102210.52;;;13.13;42.57
80397;BME280;69721;55.894;-3.052;2023-05-17T02:17:01;102207.82;;;13.28;42.05
80397;BME280;69721;55.894;-3.052;2023-05-17T02:19:27;102204.30;;;13.72;41.70
80397;BME280;69721;55.894;-3.052;2023-05-17T02:21:52;102203.04;;;13.69;41.62
80397;BME280;69721;55.894;-3.052;2023-05-17T02:24:18;102202.99;;;13.82;41.33
80397;BME280;69721;55.894;-3.052;2023-05-17T02:26:43;102205.68;;;13.75;41.45
80397;BME280;69721;55.894;-3.052;2023-05-17T02:29:08;102211.19;;;14.07;41.41
80397;BME280;69721;55.894;-3.052;2023-05-17T02:31:33;102212.43;;;13.68;41.68
80397;BME280;69721;55.894;-3.052;2023-05-17T02:33:58;102211.26;;;14.03;41.31
80397;BME280;69721;55.894;-3.052;2023-05-17T02:36:24;102212.02;;;13.99;41.25
80397;BME280;69721;55.894;-3.052;2023-05-17T02:38:49;102211.66;;;13.53;42.16
80397;BME280;69721;55.894;-3.052;2023-05-17T02:41:14;102206.92;;;13.42;42.45
80397;BME280;69721;55.894;-3.052;2023-05-17T02:43:40;102204.33;;;13.59;42.00
80397;BME280;69721;55.894;-3.052;2023-05-17T02:46:05;102201.57;;;13.87;42.10
80397;BME280;69721;55.894;-3.052;2023-05-17T02:48:31;102203.00;;;13.94;41.89
80397;BME280;69721;55.894;-3.052;2023-05-17T02:50:56;102204.27;;;14.01;42.12
80397;BME280;69721;55.894;-3.052;2023-05-17T02:53:22;102206.75;;;13.70;42.14
80397;BME280;69721;55.894;-3.052;2023-05-17T02:55:47;102207.06;;;13.31;42.57
80397;BME280;69721;55.894;-3.052;2023-05-17T02:58:13;102212.54;;;13.11;43.62
80397;BME280;69721;55.894;-3.052;2023-05-17T03:00:38;102216.28;;;12.93;43.66
80397;BME280;69721;55.894;-3.052;2023-05-17T03:03:04;102214.00;;;12.61;44.34
80397;BME280;69721;55.894;-3.052;2023-05-17T03:05:29;102209.07;;;13.25;43.58
80397;BME280;69721;55.894;-3.052;2023-05-17T03:07:55;102208.93;;;13.27;43.60
80397;BME280;69721;55.894;-3.052;2023-05-17T03:10:20;102208.75;;;13.05;43.45
80397;BME280;69721;55.894;-3.052;2023-05-17T03:12:45;102203.77;;;13.13;43.75
80397;BME280;69721;55.894;-3.052;2023-05-17T03:15:11;102195.87;;;13.11;43.66
80397;BME280;69721;55.894;-3.052;2023-05-17T03:17:36;102190.99;;;13.58;42.87
80397;BME280;69721;55.894;-3.052;2023-05-17T03:20:02;102189.28;;;13.35;43.17
80397;BME280;69721;55.894;-3.052;2023-05-17T03:22:27;102193.71;;;13.21;43.55
80397;BME280;69721;55.894;-3.052;2023-05-17T03:24:52;102193.46;;;13.43;43.52
80397;BME280;69721;55.894;-3.052;2023-05-17T03:27:18;102191.73;;;13.52;42.87
80397;BME280;69721;55.894;-3.052;2023-05-17T03:29:43;102195.75;;;13.84;43.18
80397;BME280;69721;55.894;-3.052;2023-05-17T03:32:09;102200.62;;;13.27;43.20
80397;BME280;69721;55.894;-3.052;2023-05-17T03:34:34;102200.83;;;13.75;43.02
80397;BME280;69721;55.894;-3.052;2023-05-17T03:37:00;102197.73;;;13.42;43.08
80397;BME280;69721;55.894;-3.052;2023-05-17T03:39:25;102195.76;;;13.44;43.13
80397;BME280;69721;55.894;-3.052;2023-05-17T03:41:50;102196.09;;;13.16;43.87
80397;BME280;69721;55.894;-3.052;2023-05-17T03:44:16;102193.84;;;13.61;42.98
80397;BME280;69721;55.894;-3.052;2023-05-17T03:46:41;102192.86;;;13.68;42.82
80397;BME280;69721;55.894;-3.052;2023-05-17T03:49:07;102195.07;;;13.77;42.74
80397;BME280;69721;55.894;-3.052;2023-05-17T03:51:32;102199.82;;;13.52;43.08
80397;BME280;69721;55.894;-3.052;2023-05-17T03:53:59;102202.80;;;12.82;44.11
80397;BME280;69721;55.894;-3.052;2023-05-17T03:56:23;102199.69;;;13.35;43.76
80397;BME280;69721;55.894;-3.052;2023-05-17T03:58:48;102203.27;;;13.38;43.40
80397;BME280;69721;55.894;-3.052;2023-05-17T04:01:14;102203.41;;;13.63;43.46
80397;BME280;69721;55.894;-3.052;2023-05-17T04:03:39;102203.51;;;13.40;43.22
80397;BME280;69721;55.894;-3.052;2023-05-17T04:06:06;102205.61;;;13.51;43.84
80397;BME280;69721;55.894;-3.052;2023-05-17T04:08:30;102205.79;;;13.45;43.46
80397;BME280;69721;55.894;-3.052;2023-05-17T04:10:56;102203.34;;;14.34;42.16
80397;BME280;69721;55.894;-3.052;2023-05-17T04:13:21;102202.13;;;13.94;41.99
80397;BME280;69721;55.894;-3.052;2023-05-17T04:15:47;102200.10;;;14.04;42.31
80397;BME280;69721;55.894;-3.052;2023-05-17T04:18:12;102198.97;;;14.02;41.77
80397;BME280;69721;55.894;-3.052;2023-05-17T04:20:37;102195.61;;;14.08;42.04
80397;BME280;69721;55.894;-3.052;2023-05-17T04:23:03;102190.99;;;14.01;42.50
80397;BME280;69721;55.894;-3.052;2023-05-17T04:25:28;102189.11;;;13.88;42.84
80397;BME280;69721;55.894;-3.052;2023-05-17T04:27:53;102193.16;;;13.84;42.85
80397;BME280;69721;55.894;-3.052;2023-05-17T04:30:19;102191.44;;;13.96;42.39
80397;BME280;69721;55.894;-3.052;2023-05-17T04:32:44;102193.71;;;13.80;42.66
80397;BME280;69721;55.894;-3.052;2023-05-17T04:35:09;102196.19;;;13.59;43.69
80397;BME280;69721;55.894;-3.052;2023-05-17T04:37:35;102196.03;;;14.37;42.33
80397;BME280;69721;55.894;-3.052;2023-05-17T04:40:00;102198.11;;;14.20;42.26
80397;BME280;69721;55.894;-3.052;2023-05-17T04:42:25;102195.24;;;14.88;41.41
80397;BME280;69721;55.894;-3.052;2023-05-17T04:44:51;102191.68;;;14.44;41.53
80397;BME280;69721;55.894;-3.052;2023-05-17T04:47:17;102192.55;;;14.08;42.54
80397;BME280;69721;55.894;-3.052;2023-05-17T04:49:41;102199.33;;;14.44;42.06
80397;BME280;69721;55.894;-3.052;2023-05-17T04:52:07;102206.00;;;14.18;42.18
80397;BME280;69721;55.894;-3.052;2023-05-17T04:54:32;102204.60;;;14.48;42.01
80397;BME280;69721;55.894;-3.052;2023-05-17T04:56:58;102206.60;;;13.90;42.91
80397;BME280;69721;55.894;-3.052;2023-05-17T04:59:23;102205.47;;;14.37;42.84
80397;BME280;69721;55.894;-3.052;2023-05-17T05:01:48;102209.25;;;14.44;42.57
80397;BME280;69721;55.894;-3.052;2023-05-17T05:04:14;102210.84;;;14.25;42.60
80397;BME280;69721;55.894;-3.052;2023-05-17T05:06:39;102213.11;;;14.58;42.37
80397;BME280;69721;55.894;-3.052;2023-05-17T05:09:04;102213.84;;;14.32;42.02
80397;BME280;69721;55.894;-3.052;2023-05-17T05:11:30;102220.26;;;14.34;42.25
80397;BME280;69721;55.894;-3.052;2023-05-17T05:13:55;102226.99;;;14.33;42.66
80397;BME280;69721;55.894;-3.052;2023-05-17T05:16:21;102232.62;;;14.15;42.54
80397;BME280;69721;55.894;-3.052;2023-05-17T05:18:46;102235.07;;;14.53;42.21
80397;BME280;69721;55.894;-3.052;2023-05-17T05:21:11;102236.46;;;14.85;42.22
80397;BME280;69721;55.894;-3.052;2023-05-17T05:23:37;102234.19;;;14.37;42.40
80397;BME280;69721;55.894;-3.052;2023-05-17T05:26:03;102235.18;;;14.35;42.75
80397;BME280;69721;55.894;-3.052;2023-05-17T05:28:28;102236.66;;;14.36;42.68
80397;BME280;69721;55.894;-3.052;2023-05-17T05:30:56;102238.87;;;14.40;42.95
80397;BME280;69721;55.894;-3.052;2023-05-17T05:33:19;102245.16;;;13.53;43.53
80397;BME280;69721;55.894;-3.052;2023-05-17T05:35:44;102246.90;;;14.12;43.72
80397;BME280;69721;55.894;-3.052;2023-05-17T05:38:10;102251.21;;;13.65;44.58
80397;BME280;69721;55.894;-3.052;2023-05-17T05:40:35;102253.04;;;14.09;44.18
80397;BME280;69721;55.894;-3.052;2023-05-17T05:43:01;102255.80;;;14.19;44.20
80397;BME280;69721;55.894;-3.052;2023-05-17T05:45:27;102257.19;;;13.90;44.06
80397;BME280;69721;55.894;-3.052;2023-05-17T05:47:52;102256.59;;;13.96;44.13
80397;BME280;69721;55.894;-3.052;2023-05-17T05:50:17;102257.16;;;14.22;43.71
80397;BME280;69721;55.894;-3.052;2023-05-17T05:52:43;102261.69;;;14.78;42.66
80397;BME280;69721;55.894;-3.052;2023-05-17T05:55:08;102263.54;;;14.10;43.38
80397;BME280;69721;55.894;-3.052;2023-05-17T05:57:34;102267.54;;;14.85;42.84
80397;BME280;69721;55.894;-3.052;2023-05-17T05:59:59;102266.03;;;14.61;42.67
80397;BME280;69721;55.894;-3.052;2023-05-17T06:02:24;102264.69;;;14.39;42.85
80397;BME280;69721;55.894;-3.052;2023-05-17T06:04:49;102268.34;;;14.78;42.82
80397;BME280;69721;55.894;-3.052;2023-05-17T06:07:15;102269.34;;;15.14;42.32
80397;BME280;69721;55.894;-3.052;2023-05-17T06:09:41;102271.77;;;15.07;42.16
80397;BME280;69721;55.894;-3.052;2023-05-17T06:12:06;102275.08;;;14.80;42.37
80397;BME280;69721;55.894;-3.052;2023-05-17T06:14:32;102272.95;;;15.31;41.63
80397;BME280;69721;55.894;-3.052;2023-05-17T06:16:57;102269.13;;;15.00;41.92
80397;BME280;69721;55.894;-3.052;2023-05-17T06:19:24;102269.55;;;15.45;41.39
80397;BME280;69721;55.894;-3.052;2023-05-17T06:21:49;102270.92;;;15.19;42.03
80397;BME280;69721;55.894;-3.052;2023-05-17T06:24:15;102275.89;;;15.45;41.90
80397;BME280;69721;55.894;-3.052;2023-05-17T06:26:40;102277.48;;;15.56;41.76
80397;BME280;69721;55.894;-3.052;2023-05-17T06:29:06;102279.03;;;15.79;41.21
80397;BME280;69721;55.894;-3.052;2023-05-17T06:31:31;102278.08;;;15.98;40.88
80397;BME280;69721;55.894;-3.052;2023-05-17T06:33:56;102285.96;;;15.99;40.66
80397;BME280;69721;55.894;-3.052;2023-05-17T06:36:23;102282.13;;;16.17;40.89
80397;BME280;69721;55.894;-3.052;2023-05-17T06:38:48;102284.51;;;16.02;40.81
80397;BME280;69721;55.894;-3.052;2023-05-17T06:41:14;102285.43;;;15.74;41.26
80397;BME280;69721;55.894;-3.052;2023-05-17T06:43:39;102280.50;;;16.15;40.69
80397;BME280;69721;55.894;-3.052;2023-05-17T06:46:05;102279.25;;;16.44;40.24
80397;BME280;69721;55.894;-3.052;2023-05-17T06:48:30;102279.07;;;16.72;40.39
80397;BME280;69721;55.894;-3.052;2023-05-17T06:50:56;102282.52;;;16.56;40.60
80397;BME280;69721;55.894;-3.052;2023-05-17T06:53:21;102280.27;;;15.69;41.05
80397;BME280;69721;55.894;-3.052;2023-05-17T06:55:47;102289.29;;;12.88;46.71
80397;BME280;69721;55.894;-3.052;2023-05-17T06:58:12;102290.95;;;12.14;48.61
80397;BME280;69721;55.894;-3.052;2023-05-17T07:00:38;102289.86;;;12.57;47.98
80397;BME280;69721;55.894;-3.052;2023-05-17T07:03:03;102279.07;;;13.96;45.60
80397;BME280;69721;55.894;-3.052;2023-05-17T07:05:28;102273.88;;;14.75;44.23
80397;BME280;69721;55.894;-3.052;2023-05-17T07:07:54;102277.35;;;13.43;45.86
80397;BME280;69721;55.894;-3.052;2023-05-17T07:10:19;102274.67;;;14.51;45.35
80397;BME280;69721;55.894;-3.052;2023-05-17T07:12:45;102268.79;;;14.31;44.41
80397;BME280;69721;55.894;-3.052;2023-05-17T07:15:11;102271.65;;;13.84;45.38
80397;BME280;69721;55.894;-3.052;2023-05-17T07:17:37;102273.90;;;13.95;45.50
80397;BME280;69721;55.894;-3.052;2023-05-17T07:20:02;102278.98;;;13.31;45.85
80397;BME280;69721;55.894;-3.052;2023-05-17T07:22:27;102280.78;;;14.47;44.00
80397;BME280;69721;55.894;-3.052;2023-05-17T07:24:53;102282.63;;;15.23;43.03
80397;BME280;69721;55.894;-3.052;2023-05-17T07:27:18;102279.50;;;14.50;44.30
80397;BME280;69721;55.894;-3.052;2023-05-17T07:29:43;102277.71;;;15.15;44.15
80397;BME280;69721;55.894;-3.052;2023-05-17T07:32:09;102275.54;;;16.56;41.17
80397;BME280;69721;55.894;-3.052;2023-05-17T07:34:35;102275.65;;;14.95;42.88
80397;BME280;69721;55.894;-3.052;2023-05-17T07:37:01;102273.20;;;15.75;42.53
80397;BME280;69721;55.894;-3.052;2023-05-17T07:39:26;102278.87;;;14.56;44.02
80397;BME280;69721;55.894;-3.052;2023-05-17T07:41:52;102277.29;;;14.66;43.67
80397;BME280;69721;55.894;-3.052;2023-05-17T07:44:17;102277.58;;;15.67;42.18
80397;BME280;69721;55.894;-3.052;2023-05-17T07:46:43;102276.04;;;15.35;41.82
80397;BME280;69721;55.894;-3.052;2023-05-17T07:49:08;102272.66;;;16.08;40.92
80397;BME280;69721;55.894;-3.052;2023-05-17T07:51:34;102278.80;;;16.29;39.95
80397;BME280;69721;55.894;-3.052;2023-05-17T07:53:59;102282.11;;;16.31;40.29
80397;BME280;69721;55.894;-3.052;2023-05-17T07:56:24;102282.39;;;16.93;40.46
80397;BME280;69721;55.894;-3.052;2023-05-17T07:58:49;102288.83;;;15.39;41.72
80397;BME280;69721;55.894;-3.052;2023-05-17T08:01:15;102288.76;;;14.20;43.60
80397;BME280;69721;55.894;-3.052;2023-05-17T08:03:41;102287.62;;;15.14;43.30
80397;BME280;69721;55.894;-3.052;2023-05-17T08:06:06;102286.01;;;14.92;42.34
80397;BME280;69721;55.894;-3.052;2023-05-17T08:08:31;102280.05;;;16.12;41.13
80397;BME280;69721;55.894;-3.052;2023-05-17T08:10:57;102281.09;;;15.29;42.54
80397;BME280;69721;55.894;-3.052;2023-05-17T08:13:22;102282.93;;;14.85;41.68
80397;BME280;69721;55.894;-3.052;2023-05-17T08:15:48;102279.20;;;15.22;40.92
80397;BME280;69721;55.894;-3.052;2023-05-17T08:18:13;102275.24;;;15.65;41.64
80397;BME280;69721;55.894;-3.052;2023-05-17T08:20:38;102280.52;;;15.27;42.59
80397;BME280;69721;55.894;-3.052;2023-05-17T08:23:05;102274.32;;;15.45;41.90
80397;BME280;69721;55.894;-3.052;2023-05-17T08:25:29;102274.87;;;16.30;40.34
80397;BME280;69721;55.894;-3.052;2023-05-17T08:27:55;102277.42;;;15.52;40.38
80397;BME280;69721;55.894;-3.052;2023-05-17T08:30:20;102277.82;;;15.67;40.85
80397;BME280;69721;55.894;-3.052;2023-05-17T08:32:46;102277.50;;;16.47;39.20
80397;BME280;69721;55.894;-3.052;2023-05-17T08:35:11;102270.16;;;17.89;38.28
80397;BME280;69721;55.894;-3.052;2023-05-17T08:37:37;102267.37;;;17.72;36.59
80397;BME280;69721;55.894;-3.052;2023-05-17T08:40:04;102265.35;;;18.04;37.47
80397;BME280;69721;55.894;-3.052;2023-05-17T08:42:29;102275.20;;;15.48;40.37
80397;BME280;69721;55.894;-3.052;2023-05-17T08:44:53;102277.52;;;16.60;38.96
80397;BME280;69721;55.894;-3.052;2023-05-17T08:47:19;102280.49;;;15.57;41.31
80397;BME280;69721;55.894;-3.052;2023-05-17T08:49:44;102278.68;;;16.62;39.80
80397;BME280;69721;55.894;-3.052;2023-05-17T08:52:10;102280.00;;;16.60;38.76
80397;BME280;69721;55.894;-3.052;2023-05-17T08:54:35;102277.79;;;15.48;38.64
80397;BME280;69721;55.894;-3.052;2023-05-17T08:57:03;102279.39;;;15.27;39.91
80397;BME280;69721;55.894;-3.052;2023-05-17T08:59:27;102278.35;;;16.43;38.59
80397;BME280;69721;55.894;-3.052;2023-05-17T09:01:52;102281.41;;;16.49;38.04
80397;BME280;69721;55.894;-3.052;2023-05-17T09:04:17;102282.33;;;15.55;40.07
80397;BME280;69721;55.894;-3.052;2023-05-17T09:06:42;102286.83;;;16.61;38.36
80397;BME280;69721;55.894;-3.052;2023-05-17T09:09:08;102283.80;;;13.93;42.24
80397;BME280;69721;55.894;-3.052;2023-05-17T09:11:33;102281.96;;;16.43;38.32
80397;BME280;69721;55.894;-3.052;2023-05-17T09:13:59;102281.39;;;16.77;37.86
80397;BME280;69721;55.894;-3.052;2023-05-17T09:16:24;102279.54;;;14.25;41.11
80397;BME280;69721;55.894;-3.052;2023-05-17T09:18:53;102279.16;;;16.09;40.30
80397;BME280;69721;55.894;-3.052;2023-05-17T09:21:15;102274.97;;;17.35;37.04
80397;BME280;69721;55.894;-3.052;2023-05-17T09:23:40;102276.59;;;15.73;38.43
80397;BME280;69721;55.894;-3.052;2023-05-17T09:26:06;102274.20;;;15.91;38.10
80397;BME280;69721;55.894;-3.052;2023-05-17T09:28:37;102277.72;;;15.01;39.24
80397;BME280;69721;55.894;-3.052;2023-05-17T09:30:56;102275.04;;;16.16;38.45
80397;BME280;69721;55.894;-3.052;2023-05-17T09:33:22;102272.70;;;16.25;37.98
80397;BME280;69721;55.894;-3.052;2023-05-17T09:35:47;102271.08;;;16.48;36.42
80397;BME280;69721;55.894;-3.052;2023-05-17T09:38:13;102268.07;;;17.34;35.96
80397;BME280;69721;55.894;-3.052;2023-05-17T09:40:39;102254.86;;;18.37;35.04
80397;BME280;69721;55.894;-3.052;2023-05-17T09:43:03;102258.81;;;17.10;36.19
80397;BME280;69721;55.894;-3.052;2023-05-17T09:45:31;102251.60;;;17.60;35.97
80397;BME280;69721;55.894;-3.052;2023-05-17T09:47:54;102256.49;;;16.81;35.79
80397;BME280;69721;55.894;-3.052;2023-05-17T09:50:20;102244.98;;;18.24;33.79
80397;BME280;69721;55.894;-3.052;2023-05-17T09:52:45;102244.83;;;17.99;34.18
80397;BME280;69721;55.894;-3.052;2023-05-17T09:55:10;102239.58;;;18.86;34.52
80397;BME280;69721;55.894;-3.052;2023-05-17T09:57:37;102237.86;;;18.14;34.01
80397;BME280;69721;55.894;-3.052;2023-05-17T10:00:01;102242.74;;;16.09;38.08
80397;BME280;69721;55.894;-3.052;2023-05-17T10:02:27;102241.93;;;14.57;39.29
80397;BME280;69721;55.894;-3.052;2023-05-17T10:04:53;102239.22;;;17.43;38.07
80397;BME280;69721;55.894;-3.052;2023-05-17T10:07:18;102233.20;;;17.64;35.45
80397;BME280;69721;55.894;-3.052;2023-05-17T10:09:43;102235.54;;;17.54;34.40
80397;BME280;69721;55.894;-3.052;2023-05-17T10:12:08;102235.24;;;19.08;35.82
80397;BME280;69721;55.894;-3.052;2023-05-17T10:14:34;102235.68;;;20.35;33.09
80397;BME280;69721;55.894;-3.052;2023-05-17T10:16:58;102230.38;;;20.17;31.84
80397;BME280;69721;55.894;-3.052;2023-05-17T10:19:24;102229.14;;;18.60;31.57
80397;BME280;69721;55.894;-3.052;2023-05-17T10:21:51;102220.03;;;20.24;31.88
80397;BME280;69721;55.894;-3.052;2023-05-17T10:24:15;102220.90;;;20.83;30.73
80397;BME280;69721;55.894;-3.052;2023-05-17T10:26:40;102220.50;;;19.72;33.31
80397;BME280;69721;55.894;-3.052;2023-05-17T10:29:52;102218.32;;;19.52;34.04
80397;BME280;69721;55.894;-3.052;2023-05-17T10:32:18;102214.40;;;20.10;34.42
80397;BME280;69721;55.894;-3.052;2023-05-17T10:34:42;102209.08;;;20.67;33.65
80397;BME280;69721;55.894;-3.052;2023-05-17T10:37:09;102210.60;;;18.58;30.86
80397;BME280;69721;55.894;-3.052;2023-05-17T10:39:33;102214.10;;;18.61;32.27
80397;BME280;69721;55.894;-3.052;2023-05-17T10:42:00;102212.69;;;18.47;32.16
80397;BME280;69721;55.894;-3.052;2023-05-17T10:44:24;102209.03;;;18.96;33.87
80397;BME280;69721;55.894;-3.052;2023-05-17T10:46:51;102207.51;;;19.25;32.29
80397;BME280;69721;55.894;-3.052;2023-05-17T10:49:16;102203.74;;;17.43;32.53
80397;BME280;69721;55.894;-3.052;2023-05-17T10:51:40;102200.51;;;20.09;32.55
80397;BME280;69721;55.894;-3.052;2023-05-17T10:54:08;102205.30;;;17.27;31.91
80397;BME280;69721;55.894;-3.052;2023-05-17T10:56:30;102208.10;;;18.43;33.04
80397;BME280;69721;55.894;-3.052;2023-05-17T11:03:47;102205.59;;;18.34;31.08
80397;BME280;69721;55.894;-3.052;2023-05-17T11:06:13;102200.37;;;19.50;29.95
80397;BME280;69721;55.894;-3.052;2023-05-17T11:08:37;102199.39;;;20.81;28.31
80397;BME280;69721;55.894;-3.052;2023-05-17T11:11:08;102197.89;;;20.66;28.64
80397;BME280;69721;55.894;-3.052;2023-05-17T11:13:27;102196.28;;;17.98;29.80
80397;BME280;69721;55.894;-3.052;2023-05-17T11:16:03;102199.20;;;18.41;28.80
80397;BME280;69721;55.894;-3.052;2023-05-17T11:18:20;102196.37;;;16.46;30.12
80397;BME280;69721;55.894;-3.052;2023-05-17T11:20:43;102185.28;;;18.63;30.59
80397;BME280;69721;55.894;-3.052;2023-05-17T11:23:16;102183.46;;;17.50;29.94
80397;BME280;69721;55.894;-3.052;2023-05-17T11:25:35;102181.80;;;19.29;29.03
80397;BME280;69721;55.894;-3.052;2023-05-17T11:27:59;102183.33;;;18.82;29.27
80397;BME280;69721;55.894;-3.052;2023-05-17T11:30:26;102190.09;;;18.72;28.55
80397;BME280;69721;55.894;-3.052;2023-05-17T11:32:51;102180.86;;;18.14;29.48
80397;BME280;69721;55.894;-3.052;2023-05-17T11:35:17;102186.93;;;17.66;28.32
80397;BME280;69721;55.894;-3.052;2023-05-17T11:37:43;102189.18;;;17.38;30.04
80397;BME280;69721;55.894;-3.052;2023-05-17T11:40:07;102183.85;;;16.63;27.04
80397;BME280;69721;55.894;-3.052;2023-05-17T11:42:33;102183.94;;;17.63;28.31
80397;BME280;69721;55.894;-3.052;2023-05-17T11:44:58;102180.99;;;17.41;27.43
80397;BME280;69721;55.894;-3.052;2023-05-17T11:47:23;102186.36;;;19.76;28.21
80397;BME280;69721;55.894;-3.052;2023-05-17T11:49:49;102187.96;;;17.34;30.04
80397;BME280;69721;55.894;-3.052;2023-05-17T11:52:15;102187.04;;;17.57;28.99
80397;BME280;69721;55.894;-3.052;2023-05-17T11:54:39;102181.42;;;17.94;29.13
80397;BME280;69721;55.894;-3.052;2023-05-17T11:57:05;102180.61;;;18.06;28.71
80397;BME280;69721;55.894;-3.052;2023-05-17T11:59:36;102181.19;;;17.69;26.51
80397;BME280;69721;55.894;-3.052;2023-05-17T12:01:56;102179.87;;;16.95;27.25
80397;BME280;69721;55.894;-3.052;2023-05-17T12:04:24;102176.89;;;16.20;29.28
80397;BME280;69721;55.894;-3.052;2023-05-17T12:06:47;102163.18;;;18.36;29.02
80397;BME280;69721;55.894;-3.052;2023-05-17T12:09:14;102168.20;;;18.02;29.50
80397;BME280;69721;55.894;-3.052;2023-05-17T12:11:40;102165.49;;;17.77;27.94
80397;BME280;69721;55.894;-3.052;2023-05-17T12:14:03;102162.06;;;16.98;31.01
80397;BME280;69721;55.894;-3.052;2023-05-17T12:16:28;102155.96;;;17.97;26.67
80397;BME280;69721;55.894;-3.052;2023-05-17T12:18:53;102159.08;;;17.03;29.84
80397;BME280;69721;55.894;-3.052;2023-05-17T12:21:19;102157.16;;;17.28;28.63
80397;BME280;69721;55.894;-3.052;2023-05-17T12:23:45;102160.39;;;16.71;29.10
80397;BME280;69721;55.894;-3.052;2023-05-17T12:26:10;102153.71;;;18.26;27.30
80397;BME280;69721;55.894;-3.052;2023-05-17T12:28:36;102156.50;;;18.54;27.53
80397;BME280;69721;55.894;-3.052;2023-05-17T12:31:01;102162.21;;;16.87;24.86
80397;BME280;69721;55.894;-3.052;2023-05-17T12:33:27;102164.01;;;16.81;27.93
80397;BME280;69721;55.894;-3.052;2023-05-17T12:35:51;102162.92;;;18.41;26.64